Time;durP1;ratioP1;P1;durP2;ratioP2;P2;SDS_P1;SDS_P2;PMS_P1;PMS_P2;Temp;Humidity;BMP_temperature;BMP_pressure;BME280_temperature;BME280_humidity;BME280_pressure;Samples;Min_cycle;Max_cycle;Signal;HPM_P1;HPM_P2
2022/03/02 00:00:43;;;;;;;3.17;1.80;;;;;;;;;;1629280;30;21756;-62
2022/03/02 00:01:35;;;;;;;1.55;1.27;;;;;;;;;;1628965;30;21531;-61
2022/03/02 00:02:26;;;;;;;2.55;1.77;;;;;;;;;;1628155;30;21594;-62
2022/03/02 00:03:18;;;;;;;2.30;1.73;;;;;;;;;;1628380;30;21576;-61
2022/03/02 00:04:09;;;;;;;4.80;1.50;;;;;;;;;;1621717;30;21858;-62
2022/03/02 00:05:02;;;;;;;1.70;1.55;;;;;;;;;;1621334;30;22025;-61
2022/03/02 00:05:53;;;;;;;4.47;1.77;;;;;;;;;;1627233;30;22115;-62
2022/03/02 00:06:45;;;;;;;2.22;1.52;;;;;;;;;;1628157;30;21852;-61
2022/03/02 00:07:36;;;;;;;2.17;1.83;;;;;;;;;;1628195;30;22059;-62
2022/03/02 00:08:29;;;;;;;2.20;1.42;;;;;;;;;;1628320;30;21659;-61
2022/03/02 00:09:20;;;;;;;5.82;1.75;;;;;;;;;;1628354;30;21557;-61
2022/03/02 00:10:12;;;;;;;1.77;1.67;;;;;;;;;;1628303;30;21563;-61
2022/03/02 00:11:05;;;;;;;16.20;1.92;;;;;;;;;;1628152;30;21549;-62
2022/03/02 00:11:58;;;;;;;1.80;1.70;;;;;;;;;;1628175;30;21557;-61
2022/03/02 00:12:49;;;;;;;2.55;1.48;;;;;;;;;;1630288;30;22122;-61
2022/03/02 00:13:42;;;;;;;2.88;1.88;;;;;;;;;;1621752;30;21683;-62
2022/03/02 00:14:33;;;;;;;2.53;1.90;;;;;;;;;;1623548;30;21628;-61
2022/03/02 00:15:26;;;;;;;2.83;1.52;;;;;;;;;;1628486;30;21859;-62
2022/03/02 00:16:17;;;;;;;1.52;1.42;;;;;;;;;;1629789;30;22208;-61
2022/03/02 00:17:09;;;;;;;4.63;1.73;;;;;;;;;;1622170;30;21548;-62
2022/03/02 00:18:01;;;;;;;4.05;1.27;;;;;;;;;;1627792;30;21565;-61
2022/03/02 00:18:53;;;;;;;1.95;1.50;;;;;;;;;;1628048;30;21617;-62
2022/03/02 00:19:44;;;;;;;2.30;1.55;;;;;;;;;;1628397;30;21582;-61
2022/03/02 00:20:37;;;;;;;1.80;1.70;;;;;;;;;;1626608;30;21661;-61
2022/03/02 00:21:28;;;;;;;1.88;1.73;;;;;;;;;;1627845;30;22131;-62
2022/03/02 00:22:20;;;;;;;1.38;1.25;;;;;;;;;;1630187;30;21549;-61
2022/03/02 00:23:12;;;;;;;1.85;1.73;;;;;;;;;;1630112;30;21604;-62
2022/03/02 00:24:04;;;;;;;1.92;1.65;;;;;;;;;;1628184;30;21557;-62
2022/03/02 00:24:55;;;;;;;1.98;1.77;;;;;;;;;;1620656;30;21537;-62
2022/03/02 00:25:48;;;;;;;3.25;1.58;;;;;;;;;;1618912;30;21573;-61
2022/03/02 00:26:40;;;;;;;1.58;1.48;;;;;;;;;;1625580;30;21531;-62
2022/03/02 00:27:33;;;;;;;2.15;1.77;;;;;;;;;;1627974;30;21783;-61
2022/03/02 00:28:24;;;;;;;3.28;1.52;;;;;;;;;;1630190;30;21576;-62
2022/03/02 00:29:17;;;;;;;4.45;1.52;;;;;;;;;;1628221;30;22126;-62
2022/03/02 00:30:10;;;;;;;4.40;1.65;;;;;;;;;;1628058;30;21933;-61
2022/03/02 00:31:02;;;;;;;4.18;1.58;;;;;;;;;;1629503;30;21707;-62
2022/03/02 00:31:54;;;;;;;3.58;1.38;;;;;;;;;;1626116;30;21623;-61
2022/03/02 00:32:46;;;;;;;2.50;1.50;;;;;;;;;;1626660;30;21496;-61
2022/03/02 00:33:38;;;;;;;1.75;1.52;;;;;;;;;;1627953;30;21590;-62
2022/03/02 00:34:30;;;;;;;1.92;1.58;;;;;;;;;;1628065;30;21709;-61
2022/03/02 00:35:22;;;;;;;1.63;1.52;;;;;;;;;;1628032;30;21520;-62
2022/03/02 00:36:14;;;;;;;2.55;1.70;;;;;;;;;;1629719;30;21538;-61
2022/03/02 00:37:06;;;;;;;1.98;1.50;;;;;;;;;;1628467;30;22377;-62
2022/03/02 00:37:58;;;;;;;2.17;1.90;;;;;;;;;;1633993;30;21536;-61
2022/03/02 00:38:49;;;;;;;10.32;1.80;;;;;;;;;;1632657;30;21511;-62
2022/03/02 00:39:42;;;;;;;4.60;1.90;;;;;;;;;;1630300;30;21608;-61
2022/03/02 00:40:33;;;;;;;2.85;1.65;;;;;;;;;;1628191;30;22155;-61
2022/03/02 00:41:25;;;;;;;3.25;1.95;;;;;;;;;;1628001;30;21668;-61
2022/03/02 00:42:18;;;;;;;4.55;1.65;;;;;;;;;;1629170;30;21599;-62
2022/03/02 00:43:10;;;;;;;3.70;1.23;;;;;;;;;;1628191;30;21544;-61
2022/03/02 00:44:03;;;;;;;3.80;1.77;;;;;;;;;;1628115;30;21564;-61
2022/03/02 00:44:55;;;;;;;3.95;1.75;;;;;;;;;;1628143;30;21501;-61
2022/03/02 00:45:46;;;;;;;2.03;1.90;;;;;;;;;;1630017;30;21637;-61
2022/03/02 00:46:41;;;;;;;5.88;1.75;;;;;;;;;;1629924;30;21492;-61
2022/03/02 00:47:32;;;;;;;6.95;1.80;;;;;;;;;;1627964;30;21497;-62
2022/03/02 00:48:25;;;;;;;1.63;1.50;;;;;;;;;;1627968;30;21571;-62
2022/03/02 00:49:17;;;;;;;3.60;1.63;;;;;;;;;;1630047;30;21575;-61
2022/03/02 00:50:11;;;;;;;1.67;1.52;;;;;;;;;;1621492;30;21537;-62
2022/03/02 00:51:03;;;;;;;3.95;1.30;;;;;;;;;;1621431;30;22155;-61
2022/03/02 00:51:55;;;;;;;5.05;2.15;;;;;;;;;;1625769;30;21782;-62
2022/03/02 00:52:48;;;;;;;2.05;1.70;;;;;;;;;;1628517;30;21562;-61
2022/03/02 00:53:40;;;;;;;2.42;1.60;;;;;;;;;;1628154;30;21612;-62
2022/03/02 00:54:33;;;;;;;2.55;1.70;;;;;;;;;;1629315;30;21537;-62
2022/03/02 00:55:25;;;;;;;1.83;1.67;;;;;;;;;;1628512;30;21643;-62
2022/03/02 00:56:17;;;;;;;5.47;1.83;;;;;;;;;;1627295;30;21707;-61
2022/03/02 00:57:08;;;;;;;4.60;1.67;;;;;;;;;;1632117;30;21512;-62
2022/03/02 00:58:03;;;;;;;4.20;2.22;;;;;;;;;;1628866;30;21547;-61
2022/03/02 00:58:54;;;;;;;1.85;1.75;;;;;;;;;;1627346;30;21689;-61
2022/03/02 00:59:46;;;;;;;1.83;1.73;;;;;;;;;;1628381;30;21565;-62
2022/03/02 01:00:38;;;;;;;4.10;2.00;;;;;;;;;;1629314;30;21552;-61
2022/03/02 01:01:30;;;;;;;2.72;1.70;;;;;;;;;;1628010;30;21924;-62
2022/03/02 01:02:21;;;;;;;3.33;1.92;;;;;;;;;;1627627;30;21593;-61
2022/03/02 01:03:13;;;;;;;2.85;1.70;;;;;;;;;;1628904;30;21566;-59
2022/03/02 01:04:07;;;;;;;5.65;1.85;;;;;;;;;;1622158;30;21665;-59
2022/03/02 01:04:59;;;;;;;1.83;1.30;;;;;;;;;;1627142;30;21536;-60
2022/03/02 01:05:50;;;;;;;2.10;1.90;;;;;;;;;;1622695;30;21700;-60
2022/03/02 01:06:42;;;;;;;5.78;1.67;;;;;;;;;;1621556;30;21553;-59
2022/03/02 01:07:34;;;;;;;3.40;1.80;;;;;;;;;;1623910;30;21488;-60
2022/03/02 01:08:26;;;;;;;4.70;1.63;;;;;;;;;;1630320;30;21619;-59
2022/03/02 01:09:18;;;;;;;3.15;1.60;;;;;;;;;;1628100;30;22108;-60
2022/03/02 01:10:10;;;;;;;2.17;1.75;;;;;;;;;;1627899;30;21933;-59
2022/03/02 01:11:02;;;;;;;1.73;1.63;;;;;;;;;;1628011;30;22204;-59
2022/03/02 01:11:54;;;;;;;2.30;1.70;;;;;;;;;;1629817;30;21584;-60
2022/03/02 01:12:45;;;;;;;8.82;1.95;;;;;;;;;;1633603;30;21524;-60
2022/03/02 01:13:39;;;;;;;8.23;1.90;;;;;;;;;;1633799;30;22126;-60
2022/03/02 01:14:30;;;;;;;7.80;1.90;;;;;;;;;;1626403;30;21649;-60
2022/03/02 01:15:22;;;;;;;11.35;1.90;;;;;;;;;;1623552;30;21510;-60
2022/03/02 01:16:14;;;;;;;8.48;2.05;;;;;;;;;;1621169;30;22047;-60
2022/03/02 01:17:06;;;;;;;7.82;1.83;;;;;;;;;;1615441;30;21689;-60
2022/03/02 01:17:57;;;;;;;8.38;1.70;;;;;;;;;;1627652;30;21605;-60
2022/03/02 01:18:49;;;;;;;2.78;1.73;;;;;;;;;;1627821;30;21510;-60
2022/03/02 01:19:41;;;;;;;3.95;1.88;;;;;;;;;;1627701;30;21925;-59
2022/03/02 01:20:33;;;;;;;9.02;2.00;;;;;;;;;;1628980;30;21525;-61
2022/03/02 01:21:24;;;;;;;3.65;1.80;;;;;;;;;;1632640;30;22065;-61
2022/03/02 01:22:17;;;;;;;6.93;1.95;;;;;;;;;;1633007;30;21579;-62
2022/03/02 01:23:08;;;;;;;4.93;2.08;;;;;;;;;;1634108;30;21569;-62
2022/03/02 01:24:02;;;;;;;5.65;1.70;;;;;;;;;;1631212;30;22122;-62
2022/03/02 01:24:55;;;;;;;6.35;1.67;;;;;;;;;;1628608;30;21848;-61
2022/03/02 01:25:47;;;;;;;3.97;1.60;;;;;;;;;;1631917;30;21762;-62
2022/03/02 01:26:38;;;;;;;7.20;1.92;;;;;;;;;;1627527;30;21539;-61
2022/03/02 01:27:31;;;;;;;5.15;1.90;;;;;;;;;;1629807;30;21660;-62
2022/03/02 01:28:22;;;;;;;3.58;1.75;;;;;;;;;;1627956;30;21599;-62
2022/03/02 01:29:16;;;;;;;5.70;1.52;;;;;;;;;;1627879;30;22060;-62
2022/03/02 01:30:09;;;;;;;5.78;2.15;;;;;;;;;;1627853;30;21568;-61
2022/03/02 01:31:01;;;;;;;11.70;2.00;;;;;;;;;;1628459;30;22233;-62
2022/03/02 01:31:52;;;;;;;3.13;1.95;;;;;;;;;;1628719;30;21577;-62
2022/03/02 01:32:44;;;;;;;2.42;1.60;;;;;;;;;;1627778;30;21567;-61
2022/03/02 01:33:35;;;;;;;3.08;1.75;;;;;;;;;;1628006;30;21686;-62
2022/03/02 01:34:28;;;;;;;2.92;1.83;;;;;;;;;;1627922;30;21677;-61
2022/03/02 01:35:19;;;;;;;6.82;1.80;;;;;;;;;;1627109;30;21518;-61
2022/03/02 01:36:11;;;;;;;5.10;1.92;;;;;;;;;;1629667;30;22025;-62
2022/03/02 01:37:04;;;;;;;7.38;2.15;;;;;;;;;;1627732;30;22037;-62
2022/03/02 01:37:56;;;;;;;2.15;1.80;;;;;;;;;;1627738;30;21656;-62
2022/03/02 01:38:47;;;;;;;6.32;1.98;;;;;;;;;;1627815;30;22046;-62
2022/03/02 01:39:40;;;;;;;3.10;2.08;;;;;;;;;;1629790;30;21577;-62
2022/03/02 01:40:31;;;;;;;2.30;2.10;;;;;;;;;;1631100;30;21639;-62
2022/03/02 01:41:26;;;;;;;1.85;1.52;;;;;;;;;;1633034;30;22330;-62
2022/03/02 01:42:18;;;;;;;2.00;1.83;;;;;;;;;;1634180;30;22126;-62
2022/03/02 01:43:10;;;;;;;7.63;1.77;;;;;;;;;;1631771;30;21670;-61
2022/03/02 01:44:01;;;;;;;3.35;2.10;;;;;;;;;;1629427;30;21602;-62
2022/03/02 01:44:54;;;;;;;3.20;1.70;;;;;;;;;;1633840;30;21597;-61
2022/03/02 01:45:46;;;;;;;3.97;2.03;;;;;;;;;;1629650;30;21633;-62
2022/03/02 01:46:38;;;;;;;6.88;1.90;;;;;;;;;;1627149;30;21568;-61
2022/03/02 01:47:29;;;;;;;6.95;1.80;;;;;;;;;;1633772;30;22064;-62
2022/03/02 01:48:22;;;;;;;6.57;2.03;;;;;;;;;;1631480;30;21904;-61
2022/03/02 01:49:13;;;;;;;2.92;2.10;;;;;;;;;;1623078;30;21623;-61
2022/03/02 01:50:08;;;;;;;5.57;2.00;;;;;;;;;;1621236;30;21546;-62
2022/03/02 01:50:59;;;;;;;2.10;1.88;;;;;;;;;;1625173;30;21639;-62
2022/03/02 01:51:51;;;;;;;8.25;2.20;;;;;;;;;;1629974;30;22020;-62
2022/03/02 01:52:43;;;;;;;3.80;1.60;;;;;;;;;;1628079;30;21660;-61
2022/03/02 01:53:36;;;;;;;2.33;2.13;;;;;;;;;;1627159;30;21864;-62
2022/03/02 01:54:27;;;;;;;5.60;1.90;;;;;;;;;;1629872;30;21576;-62
2022/03/02 01:55:19;;;;;;;4.45;2.15;;;;;;;;;;1627338;30;22190;-62
2022/03/02 01:56:11;;;;;;;3.70;1.92;;;;;;;;;;1629788;30;22129;-62
2022/03/02 01:57:04;;;;;;;1.83;1.73;;;;;;;;;;1627643;30;22334;-62
2022/03/02 01:57:57;;;;;;;2.00;1.80;;;;;;;;;;1629517;30;21644;-61
2022/03/02 01:58:49;;;;;;;13.50;2.20;;;;;;;;;;1627762;30;22224;-61
2022/03/02 01:59:41;;;;;;;5.90;1.85;;;;;;;;;;1627760;30;21597;-61
2022/03/02 02:00:34;;;;;;;4.85;1.70;;;;;;;;;;1629657;30;22251;-61
2022/03/02 02:01:26;;;;;;;3.78;1.83;;;;;;;;;;1624849;30;21619;-61
2022/03/02 02:02:18;;;;;;;6.75;2.03;;;;;;;;;;1627544;30;21645;-62
2022/03/02 02:03:09;;;;;;;7.13;1.85;;;;;;;;;;1629614;30;21589;-61
2022/03/02 02:04:03;;;;;;;2.90;1.88;;;;;;;;;;1626737;30;21609;-61
2022/03/02 02:04:54;;;;;;;5.43;1.85;;;;;;;;;;1627649;30;21595;-61
2022/03/02 02:05:46;;;;;;;9.25;2.25;;;;;;;;;;1629610;30;21848;-61
2022/03/02 02:06:37;;;;;;;3.92;2.03;;;;;;;;;;1627662;30;21581;-61
2022/03/02 02:07:30;;;;;;;4.28;1.80;;;;;;;;;;1628243;30;22235;-61
2022/03/02 02:08:21;;;;;;;6.97;2.13;;;;;;;;;;1628560;30;21503;-61
2022/03/02 02:09:13;;;;;;;3.22;1.98;;;;;;;;;;1627698;30;21600;-61
2022/03/02 02:10:06;;;;;;;4.93;1.95;;;;;;;;;;1627334;30;21605;-61
2022/03/02 02:10:58;;;;;;;2.55;2.20;;;;;;;;;;1626658;30;21555;-61
2022/03/02 02:11:50;;;;;;;3.55;1.75;;;;;;;;;;1621220;30;21592;-62
2022/03/02 02:12:42;;;;;;;4.57;2.05;;;;;;;;;;1625627;30;21901;-61
2022/03/02 02:13:34;;;;;;;14.05;2.40;;;;;;;;;;1630310;30;21569;-62
2022/03/02 02:14:26;;;;;;;3.30;1.92;;;;;;;;;;1629817;30;21657;-61
2022/03/02 02:15:18;;;;;;;3.10;2.05;;;;;;;;;;1626998;30;21476;-61
2022/03/02 02:16:13;;;;;;;3.90;2.00;;;;;;;;;;1630030;30;21686;-61
2022/03/02 02:17:04;;;;;;;10.55;2.55;;;;;;;;;;1628896;30;22138;-62
2022/03/02 02:17:57;;;;;;;3.35;1.95;;;;;;;;;;1632307;30;21592;-62
2022/03/02 02:18:50;;;;;;;2.55;1.70;;;;;;;;;;1632699;30;21584;-62
2022/03/02 02:19:42;;;;;;;2.55;1.90;;;;;;;;;;1633812;30;22074;-61
2022/03/02 02:20:37;;;;;;;6.68;2.60;;;;;;;;;;1631773;30;21568;-62
2022/03/02 02:21:29;;;;;;;4.15;2.20;;;;;;;;;;1628541;30;22029;-61
2022/03/02 02:22:21;;;;;;;2.67;2.38;;;;;;;;;;1627586;30;21624;-61
2022/03/02 02:23:13;;;;;;;7.13;1.70;;;;;;;;;;1621730;30;21541;-61
2022/03/02 02:24:05;;;;;;;3.10;1.65;;;;;;;;;;1621729;30;22187;-61
2022/03/02 02:24:56;;;;;;;4.43;1.83;;;;;;;;;;1625960;30;21687;-61
2022/03/02 02:25:49;;;;;;;7.13;2.08;;;;;;;;;;1630049;30;21655;-61
2022/03/02 02:26:40;;;;;;;2.97;1.58;;;;;;;;;;1628092;30;21602;-61
2022/03/02 02:27:33;;;;;;;3.83;2.47;;;;;;;;;;1631346;30;21696;-61
2022/03/02 02:28:28;;;;;;;5.72;1.90;;;;;;;;;;1628779;30;21960;-61
2022/03/02 02:29:24;;;;;;;8.38;2.13;;;;;;;;;;1627610;30;21489;-61
2022/03/02 02:30:17;;;;;;;9.57;2.17;;;;;;;;;;1617048;30;21648;-61
2022/03/02 02:31:08;;;;;;;11.80;2.50;;;;;;;;;;1620924;30;21591;-61
2022/03/02 02:32:01;;;;;;;13.50;2.50;;;;;;;;;;1631307;30;21657;-61
2022/03/02 02:32:52;;;;;;;14.98;2.60;;;;;;;;;;1632253;30;21625;-61
2022/03/02 02:33:45;;;;;;;18.35;2.15;;;;;;;;;;1632281;30;21497;-61
2022/03/02 02:34:36;;;;;;;8.80;2.33;;;;;;;;;;1628205;30;21803;-61
2022/03/02 02:35:28;;;;;;;5.75;2.30;;;;;;;;;;1631440;30;21511;-61
2022/03/02 02:36:21;;;;;;;6.72;2.05;;;;;;;;;;1628511;30;21590;-61
2022/03/02 02:37:14;;;;;;;7.03;2.17;;;;;;;;;;1629712;30;21556;-62
2022/03/02 02:38:06;;;;;;;3.17;2.08;;;;;;;;;;1620956;30;21581;-61
2022/03/02 02:38:58;;;;;;;5.18;2.35;;;;;;;;;;1624898;30;21550;-61
2022/03/02 02:39:55;;;;;;;5.70;2.20;;;;;;;;;;1629295;30;21668;-62
2022/03/02 02:40:47;;;;;;;4.10;1.77;;;;;;;;;;1626774;30;21579;-61
2022/03/02 02:41:38;;;;;;;5.07;2.00;;;;;;;;;;1627429;30;22037;-61
2022/03/02 02:42:30;;;;;;;4.63;2.00;;;;;;;;;;1629083;30;21537;-61
2022/03/02 02:43:25;;;;;;;2.58;2.35;;;;;;;;;;1626662;30;22051;-61
2022/03/02 02:44:17;;;;;;;9.73;2.10;;;;;;;;;;1627531;30;22001;-61
2022/03/02 02:45:09;;;;;;;7.40;2.10;;;;;;;;;;1629201;30;21561;-62
2022/03/02 02:46:01;;;;;;;4.78;1.60;;;;;;;;;;1628834;30;21559;-61
2022/03/02 02:46:53;;;;;;;3.30;1.95;;;;;;;;;;1625759;30;21559;-62
2022/03/02 02:47:45;;;;;;;6.38;2.20;;;;;;;;;;1626024;30;21647;-61
2022/03/02 02:48:38;;;;;;;7.78;1.83;;;;;;;;;;1627833;30;21654;-61
2022/03/02 02:49:30;;;;;;;5.93;2.00;;;;;;;;;;1627530;30;21717;-61
2022/03/02 02:50:24;;;;;;;3.70;2.13;;;;;;;;;;1627356;30;22257;-62
2022/03/02 02:51:16;;;;;;;5.78;1.75;;;;;;;;;;1627891;30;21554;-61
2022/03/02 02:52:09;;;;;;;8.50;2.28;;;;;;;;;;1629145;30;21582;-62
2022/03/02 02:53:03;;;;;;;12.70;2.35;;;;;;;;;;1633387;30;21555;-62
2022/03/02 02:53:55;;;;;;;10.80;2.03;;;;;;;;;;1621579;30;21653;-61
2022/03/02 02:54:48;;;;;;;3.53;2.45;;;;;;;;;;1621460;30;21575;-61
2022/03/02 02:55:41;;;;;;;7.20;2.40;;;;;;;;;;1625916;30;21536;-61
2022/03/02 02:56:33;;;;;;;14.00;2.60;;;;;;;;;;1627695;30;21513;-61
2022/03/02 02:57:25;;;;;;;10.10;2.47;;;;;;;;;;1627467;30;21670;-62
2022/03/02 02:58:17;;;;;;;8.32;2.10;;;;;;;;;;1627613;30;21543;-61
2022/03/02 02:59:09;;;;;;;7.00;1.73;;;;;;;;;;1627596;30;21594;-61
2022/03/02 03:00:01;;;;;;;4.28;1.92;;;;;;;;;;1628967;30;21556;-61
2022/03/02 03:00:52;;;;;;;3.90;2.03;;;;;;;;;;1620937;30;22155;-61
2022/03/02 03:01:44;;;;;;;5.95;1.92;;;;;;;;;;1619303;30;21576;-61
2022/03/02 03:02:37;;;;;;;11.05;2.03;;;;;;;;;;1626405;30;21586;-61
2022/03/02 03:03:29;;;;;;;3.22;2.53;;;;;;;;;;1620946;30;22231;-62
2022/03/02 03:04:20;;;;;;;3.90;1.88;;;;;;;;;;1620769;30;21686;-61
2022/03/02 03:05:14;;;;;;;2.78;2.10;;;;;;;;;;1624215;30;21629;-61
2022/03/02 03:06:05;;;;;;;3.10;2.40;;;;;;;;;;1628173;30;21572;-61
2022/03/02 03:06:57;;;;;;;7.95;1.98;;;;;;;;;;1632801;30;21631;-61
2022/03/02 03:07:51;;;;;;;3.00;2.50;;;;;;;;;;1632664;30;21561;-61
2022/03/02 03:08:43;;;;;;;4.53;2.25;;;;;;;;;;1633466;30;21623;-62
2022/03/02 03:09:34;;;;;;;4.28;1.80;;;;;;;;;;1631566;30;21613;-61
2022/03/02 03:10:27;;;;;;;3.28;1.90;;;;;;;;;;1628902;30;22132;-61
2022/03/02 03:11:19;;;;;;;4.50;2.08;;;;;;;;;;1620907;30;22120;-62
2022/03/02 03:12:11;;;;;;;3.55;2.17;;;;;;;;;;1620744;30;21542;-61
2022/03/02 03:13:03;;;;;;;7.55;2.08;;;;;;;;;;1626954;30;21559;-62
2022/03/02 03:13:55;;;;;;;6.30;1.65;;;;;;;;;;1627506;30;21490;-61
2022/03/02 03:14:46;;;;;;;3.75;2.20;;;;;;;;;;1627072;30;22124;-62
2022/03/02 03:15:39;;;;;;;8.75;2.17;;;;;;;;;;1630600;30;21763;-61
2022/03/02 03:16:30;;;;;;;5.38;2.08;;;;;;;;;;1630575;30;21663;-61
2022/03/02 03:17:22;;;;;;;2.70;1.90;;;;;;;;;;1631869;30;21637;-61
2022/03/02 03:18:14;;;;;;;2.65;1.83;;;;;;;;;;1629646;30;21556;-61
2022/03/02 03:19:07;;;;;;;3.75;2.10;;;;;;;;;;1627413;30;21620;-61
2022/03/02 03:19:58;;;;;;;5.82;2.20;;;;;;;;;;1627410;30;21546;-61
2022/03/02 03:20:50;;;;;;;6.80;2.28;;;;;;;;;;1627811;30;21917;-61
2022/03/02 03:21:41;;;;;;;5.03;2.10;;;;;;;;;;1628582;30;21620;-61
2022/03/02 03:22:34;;;;;;;7.43;1.67;;;;;;;;;;1628462;30;21482;-62
2022/03/02 03:23:27;;;;;;;5.55;2.10;;;;;;;;;;1628489;30;21614;-62
2022/03/02 03:24:19;;;;;;;8.50;2.10;;;;;;;;;;1630332;30;21576;-62
2022/03/02 03:25:12;;;;;;;3.85;2.42;;;;;;;;;;1628221;30;21568;-62
2022/03/02 03:26:04;;;;;;;13.77;2.55;;;;;;;;;;1630775;30;21533;-61
2022/03/02 03:26:56;;;;;;;15.73;2.33;;;;;;;;;;1630367;30;21591;-61
2022/03/02 03:27:49;;;;;;;6.25;2.00;;;;;;;;;;1628334;30;21516;-61
2022/03/02 03:28:40;;;;;;;10.07;2.35;;;;;;;;;;1628400;30;21720;-61
2022/03/02 03:29:32;;;;;;;4.35;2.20;;;;;;;;;;1623860;30;21579;-61
2022/03/02 03:30:25;;;;;;;4.38;2.05;;;;;;;;;;1618888;30;21596;-61
2022/03/02 03:31:17;;;;;;;7.28;2.30;;;;;;;;;;1626163;30;21767;-61
2022/03/02 03:32:08;;;;;;;13.38;2.15;;;;;;;;;;1628375;30;21608;-62
2022/03/02 03:33:02;;;;;;;7.75;2.33;;;;;;;;;;1628508;30;21615;-61
2022/03/02 03:33:53;;;;;;;20.38;2.17;;;;;;;;;;1628239;30;21634;-61
2022/03/02 03:34:46;;;;;;;4.10;2.15;;;;;;;;;;1634701;30;21930;-61
2022/03/02 03:35:37;;;;;;;14.65;2.33;;;;;;;;;;1630843;30;21785;-53
2022/03/02 03:36:29;;;;;;;13.50;2.42;;;;;;;;;;1628716;30;22023;-49
2022/03/02 03:37:20;;;;;;;13.20;2.30;;;;;;;;;;1627757;30;22209;-53
2022/03/02 03:38:13;;;;;;;14.85;2.72;;;;;;;;;;1629146;30;21541;-50
2022/03/02 03:39:05;;;;;;;19.05;3.08;;;;;;;;;;1634194;30;21619;-52
2022/03/02 03:39:57;;;;;;;8.00;2.47;;;;;;;;;;1633536;30;22078;-52
2022/03/02 03:40:50;;;;;;;14.63;2.80;;;;;;;;;;1632637;30;22059;-51
2022/03/02 03:41:41;;;;;;;18.70;2.60;;;;;;;;;;1629529;30;21631;-52
2022/03/02 03:42:33;;;;;;;22.90;2.95;;;;;;;;;;1628417;30;21500;-54
2022/03/02 03:43:24;;;;;;;15.13;2.25;;;;;;;;;;1628337;30;21586;-50
2022/03/02 03:44:17;;;;;;;19.25;3.10;;;;;;;;;;1630207;30;21507;-53
2022/03/02 03:45:09;;;;;;;23.05;3.28;;;;;;;;;;1628548;30;21650;-53
2022/03/02 03:46:01;;;;;;;11.98;2.80;;;;;;;;;;1630587;30;21674;-51
2022/03/02 03:46:53;;;;;;;19.73;3.20;;;;;;;;;;1630084;30;21596;-51
2022/03/02 03:47:45;;;;;;;19.35;3.75;;;;;;;;;;1628393;30;21641;-53
2022/03/02 03:48:37;;;;;;;26.38;3.00;;;;;;;;;;1628364;30;21593;-52
2022/03/02 03:49:29;;;;;;;23.73;3.15;;;;;;;;;;1628417;30;21659;-53
2022/03/02 03:50:20;;;;;;;31.65;2.90;;;;;;;;;;1627945;30;22261;-53
2022/03/02 03:51:13;;;;;;;27.10;3.00;;;;;;;;;;1630645;30;21548;-51
2022/03/02 03:52:05;;;;;;;15.98;2.92;;;;;;;;;;1628285;30;22216;-50
2022/03/02 03:52:57;;;;;;;25.90;3.75;;;;;;;;;;1628206;30;21597;-53
2022/03/02 03:53:48;;;;;;;12.75;2.90;;;;;;;;;;1628294;30;21507;-50
2022/03/02 03:54:41;;;;;;;14.82;2.70;;;;;;;;;;1630393;30;21628;-49
2022/03/02 03:55:33;;;;;;;22.40;2.88;;;;;;;;;;1629310;30;21555;-54
2022/03/02 03:56:25;;;;;;;24.20;3.90;;;;;;;;;;1626631;30;21743;-50
2022/03/02 03:57:16;;;;;;;15.55;2.53;;;;;;;;;;1627707;30;21562;-51
2022/03/02 03:58:09;;;;;;;12.05;2.10;;;;;;;;;;1632220;30;21576;-52
2022/03/02 03:59:00;;;;;;;15.52;2.88;;;;;;;;;;1631212;30;21742;-50
2022/03/02 03:59:52;;;;;;;9.00;2.60;;;;;;;;;;1628238;30;22111;-49
2022/03/02 04:00:44;;;;;;;11.43;2.80;;;;;;;;;;1628389;30;21655;-53
2022/03/02 04:01:36;;;;;;;14.38;2.40;;;;;;;;;;1628454;30;21509;-49
2022/03/02 04:02:27;;;;;;;25.10;2.90;;;;;;;;;;1627789;30;21497;-50
2022/03/02 04:03:20;;;;;;;11.30;2.80;;;;;;;;;;1630610;30;22085;-53
2022/03/02 04:04:11;;;;;;;20.30;3.00;;;;;;;;;;1628248;30;21508;-52
2022/03/02 04:05:04;;;;;;;21.23;2.95;;;;;;;;;;1628179;30;22064;-50
2022/03/02 04:05:55;;;;;;;8.95;2.75;;;;;;;;;;1628381;30;21518;-53
2022/03/02 04:06:47;;;;;;;18.30;3.10;;;;;;;;;;1629031;30;21714;-50
2022/03/02 04:07:39;;;;;;;10.75;2.70;;;;;;;;;;1628293;30;21665;-50
2022/03/02 04:08:31;;;;;;;7.68;2.33;;;;;;;;;;1628261;30;21545;-52
2022/03/02 04:09:22;;;;;;;8.25;3.20;;;;;;;;;;1628259;30;22195;-51
2022/03/02 04:10:17;;;;;;;17.20;3.00;;;;;;;;;;1630105;30;21607;-51
2022/03/02 04:11:08;;;;;;;12.25;2.80;;;;;;;;;;1628375;30;21622;-53
2022/03/02 04:12:00;;;;;;;17.75;2.83;;;;;;;;;;1628073;30;21566;-50
2022/03/02 04:12:51;;;;;;;17.98;2.90;;;;;;;;;;1628255;30;22031;-51
2022/03/02 04:13:43;;;;;;;11.32;2.25;;;;;;;;;;1627634;30;21508;-54
2022/03/02 04:14:34;;;;;;;7.35;2.75;;;;;;;;;;1630640;30;21607;-50
2022/03/02 04:15:26;;;;;;;4.80;2.60;;;;;;;;;;1628208;30;21563;-53
2022/03/02 04:16:18;;;;;;;5.82;2.60;;;;;;;;;;1629912;30;21612;-50
2022/03/02 04:17:10;;;;;;;10.95;3.13;;;;;;;;;;1628291;30;21566;-52
2022/03/02 04:18:01;;;;;;;8.40;2.50;;;;;;;;;;1630580;30;22148;-51
2022/03/02 04:18:53;;;;;;;14.70;2.60;;;;;;;;;;1627957;30;21554;-53
2022/03/02 04:19:44;;;;;;;8.50;2.75;;;;;;;;;;1621642;30;21529;-50
2022/03/02 04:20:37;;;;;;;7.30;2.30;;;;;;;;;;1622704;30;21710;-50
2022/03/02 04:21:28;;;;;;;4.43;2.58;;;;;;;;;;1626452;30;21579;-50
2022/03/02 04:22:20;;;;;;;4.05;2.53;;;;;;;;;;1627965;30;21612;-50
2022/03/02 04:23:11;;;;;;;15.77;2.78;;;;;;;;;;1618284;30;21555;-50
2022/03/02 04:24:05;;;;;;;9.55;2.25;;;;;;;;;;1623854;30;21539;-50
2022/03/02 04:24:56;;;;;;;2.60;2.30;;;;;;;;;;1631291;30;21598;-52
2022/03/02 04:25:50;;;;;;;7.50;2.50;;;;;;;;;;1630011;30;21641;-52
2022/03/02 04:26:41;;;;;;;6.93;2.08;;;;;;;;;;1629087;30;21578;-52
2022/03/02 04:27:33;;;;;;;8.50;2.78;;;;;;;;;;1628180;30;21683;-52
2022/03/02 04:28:24;;;;;;;10.55;2.55;;;;;;;;;;1628061;30;21586;-51
2022/03/02 04:29:16;;;;;;;5.60;2.10;;;;;;;;;;1628262;30;21659;-52
2022/03/02 04:30:10;;;;;;;6.43;2.47;;;;;;;;;;1630082;30;22171;-50
2022/03/02 04:31:02;;;;;;;11.20;2.30;;;;;;;;;;1627590;30;21977;-51
2022/03/02 04:31:53;;;;;;;11.00;2.42;;;;;;;;;;1627992;30;21658;-51
2022/03/02 04:32:46;;;;;;;7.43;2.67;;;;;;;;;;1629329;30;21641;-51
2022/03/02 04:33:37;;;;;;;15.25;2.97;;;;;;;;;;1627878;30;21524;-52
2022/03/02 04:34:29;;;;;;;20.88;3.03;;;;;;;;;;1628008;30;21583;-54
2022/03/02 04:35:21;;;;;;;12.13;2.72;;;;;;;;;;1627755;30;21709;-51
2022/03/02 04:36:13;;;;;;;15.18;2.58;;;;;;;;;;1629900;30;21675;-50
2022/03/02 04:37:05;;;;;;;7.97;2.53;;;;;;;;;;1622007;30;21636;-51
2022/03/02 04:37:57;;;;;;;7.75;2.00;;;;;;;;;;1627761;30;21562;-50
2022/03/02 04:38:48;;;;;;;10.73;2.70;;;;;;;;;;1629403;30;21631;-51
2022/03/02 04:39:40;;;;;;;16.27;2.40;;;;;;;;;;1628096;30;21615;-51
2022/03/02 04:40:32;;;;;;;9.32;2.88;;;;;;;;;;1628058;30;21513;-51
2022/03/02 04:41:26;;;;;;;9.90;2.70;;;;;;;;;;1630031;30;21637;-49
2022/03/02 04:42:17;;;;;;;8.68;2.13;;;;;;;;;;1628104;30;21513;-52
2022/03/02 04:43:10;;;;;;;10.10;2.80;;;;;;;;;;1628170;30;21573;-49
2022/03/02 04:44:01;;;;;;;6.28;2.53;;;;;;;;;;1627548;30;22200;-52
2022/03/02 04:44:53;;;;;;;19.40;2.92;;;;;;;;;;1630352;30;21528;-51
2022/03/02 04:45:44;;;;;;;7.43;2.80;;;;;;;;;;1630066;30;22054;-51
2022/03/02 04:46:37;;;;;;;7.55;2.60;;;;;;;;;;1627570;30;21534;-51
2022/03/02 04:47:28;;;;;;;15.35;3.05;;;;;;;;;;1623324;30;21645;-53
2022/03/02 04:48:20;;;;;;;6.05;2.90;;;;;;;;;;1621514;30;21629;-52
2022/03/02 04:49:13;;;;;;;7.72;2.50;;;;;;;;;;1625552;30;21601;-50
2022/03/02 04:50:07;;;;;;;5.57;2.50;;;;;;;;;;1628110;30;21530;-53
2022/03/02 04:50:58;;;;;;;4.28;2.42;;;;;;;;;;1628039;30;21528;-53
2022/03/02 04:51:50;;;;;;;6.15;2.13;;;;;;;;;;1634238;30;21674;-53
2022/03/02 04:52:41;;;;;;;8.27;2.88;;;;;;;;;;1632921;30;21724;-52
2022/03/02 04:53:34;;;;;;;13.50;2.47;;;;;;;;;;1634232;30;21501;-50
2022/03/02 04:55:35;;;;;;;8.07;2.60;;;;;;;;;;1625661;30;21609;-50
2022/03/02 04:56:28;;;;;;;20.80;3.10;;;;;;;;;;1628322;30;21505;-50
2022/03/02 04:57:20;;;;;;;5.63;2.30;;;;;;;;;;1630389;30;21562;-54
2022/03/02 04:58:12;;;;;;;9.45;3.47;;;;;;;;;;1628063;30;22200;-51
2022/03/02 04:59:04;;;;;;;7.85;2.60;;;;;;;;;;1627654;30;21562;-50
2022/03/02 04:59:56;;;;;;;13.88;3.97;;;;;;;;;;1630356;30;21673;-50
2022/03/02 05:00:48;;;;;;;10.40;2.70;;;;;;;;;;1627992;30;21532;-53
2022/03/02 05:01:39;;;;;;;7.75;3.08;;;;;;;;;;1627978;30;21645;-50
2022/03/02 05:02:32;;;;;;;5.13;2.58;;;;;;;;;;1628049;30;21557;-50
2022/03/02 05:03:23;;;;;;;6.57;2.75;;;;;;;;;;1627935;30;21718;-50
2022/03/02 05:04:15;;;;;;;14.70;2.72;;;;;;;;;;1629839;30;21640;-50
2022/03/02 05:05:09;;;;;;;8.00;3.35;;;;;;;;;;1622077;30;21615;-51
2022/03/02 05:06:01;;;;;;;14.07;2.97;;;;;;;;;;1628577;30;21565;-52
2022/03/02 05:06:52;;;;;;;8.48;2.75;;;;;;;;;;1632592;30;21544;-53
2022/03/02 05:07:45;;;;;;;22.33;2.83;;;;;;;;;;1632070;30;21621;-50
2022/03/02 05:08:37;;;;;;;19.17;3.50;;;;;;;;;;1628479;30;21659;-52
2022/03/02 05:09:29;;;;;;;10.95;3.22;;;;;;;;;;1633754;30;21714;-50
2022/03/02 05:10:23;;;;;;;8.38;2.80;;;;;;;;;;1633091;30;21630;-51
2022/03/02 05:11:15;;;;;;;12.90;3.63;;;;;;;;;;1632064;30;22330;-50
2022/03/02 05:12:08;;;;;;;11.95;3.17;;;;;;;;;;1628897;30;21551;-52
2022/03/02 05:13:02;;;;;;;14.15;3.10;;;;;;;;;;1627914;30;21515;-53